Fairfax, Oklahoma
Current Conditions -  °F | °C
As of 3:53 PM on Thursday 27 Nov 2014 (Local Time) from KPNC Reporting Station
Clear Clear  
Wind Chill: 45°   Ceiling: Unl
Heat Index: 49°   Visibility: 10mi
Dew Point: 17°   Wind: 9mph
Humidity: 28%   Direction: 170°S
Pressure: 30.34"   Gusts: NA
Location:  36.57°N, 96.7°W
Report Text: KPNC 272153Z AUTO 17008KT 10SM CLR 09/M08 A3034 RMK AO2 SLP280 T00941083
Loading
Personal Weather Stations






























Interactive Weather Map New forecast layout! Learn more

10-Day Weather Forecast

Advertisements
Track Severe Weather on mobile